createdAt,value
2023-04-01T00:00:33.934Z,4.80
2023-04-01T00:03:02.687Z,5.63
2023-04-01T00:05:29.861Z,5.10
2023-04-01T00:07:57.202Z,5.20
2023-04-01T00:10:24.064Z,5.07
2023-04-01T00:12:51.389Z,8.57
2023-04-01T00:15:18.318Z,7.00
2023-04-01T00:17:45.889Z,6.03
2023-04-01T00:20:15.343Z,5.80
2023-04-01T00:22:42.688Z,5.95
2023-04-01T00:25:10.445Z,7.13
2023-04-01T00:27:37.361Z,6.45
2023-04-01T00:30:04.732Z,7.32
2023-04-01T00:32:32.474Z,7.20
2023-04-01T00:35:02.406Z,7.68
2023-04-01T00:37:31.274Z,7.13
2023-04-01T00:39:58.766Z,7.00
2023-04-01T00:42:26.879Z,6.95
2023-04-01T00:44:54.783Z,7.15
2023-04-01T00:47:22.184Z,8.60
2023-04-01T00:49:50.617Z,11.07
2023-04-01T00:52:20.214Z,11.10
2023-04-01T00:54:49.136Z,12.23
2023-04-01T00:57:18.202Z,16.70
2023-04-01T00:59:48.527Z,13.02
2023-04-01T01:02:16.048Z,11.07
2023-04-01T01:04:43.201Z,11.50
2023-04-01T01:07:15.483Z,12.02
2023-04-01T01:09:48.105Z,14.00
2023-04-01T01:12:18.692Z,10.43
2023-04-01T01:14:57.967Z,11.47
2023-04-01T01:17:30.454Z,9.25
2023-04-01T01:20:12.823Z,8.18
2023-04-01T01:22:56.123Z,8.05
2023-04-01T01:25:39.003Z,8.30
2023-04-01T01:28:16.925Z,9.23
2023-04-01T01:30:50.675Z,9.60
2023-04-01T01:33:26.929Z,7.80
2023-04-01T01:35:56.806Z,7.78
2023-04-01T01:38:25.454Z,8.57
2023-04-01T01:40:55.049Z,8.10
2023-04-01T01:43:23.684Z,7.85
2023-04-01T01:45:52.087Z,7.18
2023-04-01T01:48:20.937Z,8.00
2023-04-01T01:50:48.724Z,7.63
2023-04-01T01:53:17.162Z,7.63
2023-04-01T01:55:44.869Z,6.70
2023-04-01T01:58:13.364Z,7.22
2023-04-01T02:00:41.633Z,7.55
2023-04-01T02:03:08.982Z,7.40
2023-04-01T02:05:36.765Z,6.73
2023-04-01T02:08:06.545Z,6.13
2023-04-01T02:10:36.988Z,7.32
2023-04-01T02:13:06.745Z,9.07
2023-04-01T02:15:35.154Z,9.27
2023-04-01T02:18:02.377Z,9.43
2023-04-01T02:20:30.778Z,7.68
2023-04-01T02:22:59.393Z,7.20
2023-04-01T02:25:27.966Z,7.35
2023-04-01T02:27:57.980Z,6.88
2023-04-01T02:30:26.610Z,6.13
2023-04-01T02:32:54.230Z,7.70
2023-04-01T02:35:21.519Z,6.53
2023-04-01T02:37:50.656Z,4.90
2023-04-01T02:40:18.442Z,6.32
2023-04-01T02:42:45.919Z,5.13
2023-04-01T02:45:14.852Z,5.30
2023-04-01T02:47:41.858Z,5.45
2023-04-01T02:50:09.606Z,5.50
2023-04-01T02:52:36.606Z,5.72
2023-04-01T02:55:04.587Z,5.53
2023-04-01T02:57:31.578Z,6.18
2023-04-01T02:59:58.721Z,6.33
2023-04-01T03:02:27.178Z,5.28
2023-04-01T03:04:54.236Z,6.18
2023-04-01T03:07:21.211Z,5.60
2023-04-01T03:09:48.512Z,5.70
2023-04-01T03:12:15.617Z,5.43
2023-04-01T03:14:42.545Z,5.47
2023-04-01T03:17:09.516Z,5.15
2023-04-01T03:19:37.873Z,5.83
2023-04-01T03:22:04.925Z,5.00
2023-04-01T03:24:32.011Z,5.72
2023-04-01T03:26:58.994Z,6.40
2023-04-01T03:29:26.010Z,4.88
2023-04-01T03:31:53.026Z,5.77
2023-04-01T03:34:19.946Z,4.72
2023-04-01T03:36:48.347Z,6.55
2023-04-01T03:39:15.408Z,5.22
2023-04-01T03:41:42.346Z,5.35
2023-04-01T03:44:09.357Z,5.33
2023-04-01T03:46:36.579Z,6.10
2023-04-01T03:49:03.690Z,5.25
2023-04-01T03:51:31.156Z,4.78
2023-04-01T03:53:59.522Z,5.35
2023-04-01T03:56:26.659Z,4.80
2023-04-01T03:58:53.773Z,4.85
2023-04-01T04:01:24.227Z,5.18
2023-04-01T04:03:51.956Z,6.00
2023-04-01T04:06:20.098Z,5.15
2023-04-01T04:08:47.149Z,5.80
2023-04-01T04:11:15.782Z,5.38
2023-04-01T04:13:43.140Z,4.30
2023-04-01T04:16:11.163Z,4.80
2023-04-01T04:18:38.533Z,5.03
2023-04-01T04:21:05.618Z,4.53
2023-04-01T04:23:34.639Z,5.35
2023-04-01T04:26:02.928Z,4.93
2023-04-01T04:28:31.939Z,4.25
2023-04-01T04:30:59.500Z,5.32
2023-04-01T04:33:26.615Z,4.80
2023-04-01T04:35:55.886Z,6.07
2023-04-01T04:38:23.027Z,4.93
2023-04-01T04:40:49.958Z,5.00
2023-04-01T04:43:17.782Z,5.45
2023-04-01T04:45:46.478Z,6.07
2023-04-01T04:48:21.304Z,6.53
2023-04-01T04:50:49.100Z,5.85
2023-04-01T04:53:16.368Z,7.93
2023-04-01T04:55:46.300Z,7.50
2023-04-01T04:58:13.379Z,8.77
2023-04-01T05:00:40.460Z,8.70
2023-04-01T05:03:09.272Z,9.48
2023-04-01T05:05:36.329Z,8.35
2023-04-01T05:08:03.299Z,8.13
2023-04-01T05:10:30.479Z,7.17
2023-04-01T05:12:57.490Z,10.73
2023-04-01T05:15:24.499Z,9.27
2023-04-01T05:17:51.555Z,8.60
2023-04-01T05:20:20.168Z,13.05
2023-04-01T05:22:47.120Z,9.17
2023-04-01T05:25:14.215Z,8.27
2023-04-01T05:27:41.163Z,7.97
2023-04-01T05:30:08.518Z,9.68
2023-04-01T05:32:35.518Z,9.60
2023-04-01T05:35:02.699Z,9.90
2023-04-01T05:37:31.279Z,11.98
2023-04-01T05:40:04.113Z,8.32
2023-04-01T05:42:31.062Z,10.18
2023-04-01T05:44:58.057Z,9.50
2023-04-01T05:47:25.044Z,11.17
2023-04-01T05:49:52.103Z,13.45
2023-04-01T05:52:19.007Z,12.35
2023-04-01T05:54:47.420Z,12.25
2023-04-01T05:57:14.567Z,11.98
2023-04-01T05:59:41.589Z,22.97
2023-04-01T06:02:09.629Z,20.52
2023-04-01T06:04:38.826Z,20.10
2023-04-01T06:07:10.141Z,17.58
2023-04-01T06:09:37.294Z,17.83
2023-04-01T06:12:19.189Z,26.90
2023-04-01T06:14:51.880Z,24.08
2023-04-01T06:17:24.860Z,23.52
2023-04-01T06:19:56.402Z,22.15
2023-04-01T06:22:37.249Z,23.40
2023-04-01T06:25:13.292Z,15.47
2023-04-01T06:27:51.596Z,12.15
2023-04-01T06:30:29.205Z,12.70
2023-04-01T06:33:05.908Z,10.68
2023-04-01T06:35:37.172Z,10.45
2023-04-01T06:38:30.495Z,12.73
2023-04-01T06:41:10.932Z,12.02
2023-04-01T06:43:42.609Z,20.33
2023-04-01T06:46:14.777Z,27.98
2023-04-01T06:48:48.282Z,36.97
2023-04-01T06:51:19.517Z,39.07
2023-04-01T06:53:50.750Z,43.63
2023-04-01T06:56:19.392Z,29.10
2023-04-01T06:58:47.752Z,23.25
2023-04-01T07:01:20.328Z,20.27
2023-04-01T07:03:50.786Z,20.20
2023-04-01T07:06:27.017Z,16.42
2023-04-01T07:08:55.071Z,22.42
2023-04-01T07:11:27.213Z,20.27
2023-04-01T07:13:56.194Z,25.02
2023-04-01T07:16:27.423Z,26.87
2023-04-01T07:18:57.871Z,30.17
2023-04-01T07:21:27.818Z,24.35
2023-04-01T07:23:57.812Z,20.08
2023-04-01T07:26:25.293Z,11.98
2023-04-01T07:28:53.286Z,9.57
2023-04-01T07:31:25.181Z,9.05
2023-04-01T07:33:59.716Z,15.52
2023-04-01T07:36:32.545Z,11.93
2023-04-01T07:39:05.005Z,10.10
2023-04-01T07:41:34.509Z,9.40
2023-04-01T07:44:08.088Z,11.18
2023-04-01T07:46:41.260Z,13.63
2023-04-01T07:49:12.939Z,9.60
2023-04-01T07:51:44.941Z,16.70
2023-04-01T07:54:16.915Z,12.40
2023-04-01T07:56:47.003Z,11.38
2023-04-01T07:59:17.490Z,9.95
2023-04-01T08:01:48.419Z,11.55
2023-04-01T08:04:24.036Z,8.88
2023-04-01T08:06:54.133Z,8.83
2023-04-01T08:09:24.038Z,7.18
2023-04-01T08:11:59.399Z,11.23
2023-04-01T08:14:30.461Z,9.38
2023-04-01T08:16:59.459Z,8.95
2023-04-01T08:19:32.744Z,13.17
2023-04-01T08:22:05.607Z,11.00
2023-04-01T08:24:46.598Z,8.60
2023-04-01T08:27:17.521Z,7.50
2023-04-01T08:29:48.173Z,5.45
2023-04-01T08:32:18.469Z,8.10
2023-04-01T08:34:48.643Z,9.85
2023-04-01T08:37:18.931Z,7.15
2023-04-01T08:39:47.547Z,7.63
2023-04-01T08:42:32.061Z,10.90
2023-04-01T08:45:19.695Z,7.53
2023-04-01T08:47:51.550Z,8.23
2023-04-01T08:50:27.721Z,17.15
2023-04-01T08:52:58.598Z,6.60
2023-04-01T08:55:32.284Z,6.57
2023-04-01T08:58:07.425Z,7.43
2023-04-01T09:00:37.061Z,6.03
2023-04-01T09:03:15.266Z,5.47
2023-04-01T09:05:56.463Z,11.13
2023-04-01T09:08:30.953Z,14.40
2023-04-01T09:11:01.048Z,5.93
2023-04-01T09:13:38.288Z,5.13
2023-04-01T09:16:13.240Z,30.35
2023-04-01T09:18:50.868Z,5.53
2023-04-01T09:21:26.137Z,6.05
2023-04-01T09:24:14.217Z,3.87
2023-04-01T09:26:50.431Z,3.63
2023-04-01T09:29:24.117Z,3.60
2023-04-01T09:32:14.893Z,5.07
2023-04-01T09:34:54.156Z,4.03
2023-04-01T09:37:28.481Z,7.07
2023-04-01T09:40:18.108Z,4.45
2023-04-01T09:42:47.117Z,5.93
2023-04-01T09:45:35.500Z,2.72
2023-04-01T09:48:07.131Z,3.20
2023-04-01T09:50:37.906Z,3.67
2023-04-01T09:53:19.814Z,4.10
2023-04-01T09:56:00.647Z,4.88
2023-04-01T09:58:43.790Z,3.53
2023-04-01T10:01:28.991Z,4.50
2023-04-01T10:04:09.993Z,6.63
2023-04-01T10:06:57.823Z,4.20
2023-04-01T10:09:50.871Z,3.47
2023-04-01T10:12:44.083Z,4.85
2023-04-01T10:15:31.310Z,3.08
2023-04-01T10:18:16.745Z,8.37
2023-04-01T10:20:58.553Z,4.15
2023-04-01T10:23:32.445Z,6.97
2023-04-01T10:26:07.026Z,2.58
2023-04-01T10:28:45.890Z,5.07
2023-04-01T10:31:45.870Z,6.83
2023-04-01T10:34:31.527Z,3.55
2023-04-01T10:37:00.397Z,5.55
2023-04-01T10:39:45.889Z,4.43
2023-04-01T10:42:24.939Z,4.22
2023-04-01T10:45:10.685Z,2.90
2023-04-01T10:47:50.085Z,3.60
2023-04-01T10:50:34.618Z,2.30
2023-04-01T10:53:22.523Z,2.95
2023-04-01T10:56:09.454Z,3.13
2023-04-01T10:59:03.652Z,3.70
2023-04-01T11:01:57.675Z,3.50
2023-04-01T11:04:54.237Z,3.38
2023-04-01T11:07:38.583Z,2.97
2023-04-01T11:10:24.053Z,3.33
2023-04-01T11:13:06.479Z,3.60
2023-04-01T11:15:49.553Z,4.05
2023-04-01T11:18:35.254Z,3.78
2023-04-01T11:21:26.921Z,4.65
2023-04-01T11:24:20.973Z,3.92
2023-04-01T11:26:53.850Z,4.10
2023-04-01T11:29:42.228Z,5.00
2023-04-01T11:32:21.557Z,3.95
2023-04-01T11:34:58.189Z,3.72
2023-04-01T11:37:30.755Z,4.18
2023-04-01T11:40:07.141Z,4.77
2023-04-01T11:42:38.382Z,6.35
2023-04-01T11:45:13.099Z,3.13
2023-04-01T11:47:47.544Z,3.05
2023-04-01T11:50:22.119Z,3.42
2023-04-01T11:52:59.955Z,3.00
2023-04-01T11:55:33.425Z,3.95
2023-04-01T11:58:21.232Z,2.60
2023-04-01T12:01:00.982Z,2.72
2023-04-01T12:03:38.528Z,3.08
2023-04-01T12:06:09.602Z,3.77
2023-04-01T12:08:44.078Z,3.33
2023-04-01T12:11:17.479Z,6.05
2023-04-01T12:13:50.773Z,5.55
2023-04-01T12:16:36.122Z,6.28
2023-04-01T12:19:06.059Z,3.67
2023-04-01T12:21:36.350Z,4.00
2023-04-01T12:24:14.458Z,4.25
2023-04-01T12:26:54.137Z,3.92
2023-04-01T12:29:33.400Z,2.83
2023-04-01T12:32:02.592Z,5.00
2023-04-01T12:34:50.231Z,3.85
2023-04-01T12:37:19.956Z,5.60
2023-04-01T12:39:58.019Z,4.63
2023-04-01T12:42:35.698Z,4.70
2023-04-01T12:45:06.709Z,4.30
2023-04-01T12:47:45.215Z,3.05
2023-04-01T12:50:24.349Z,4.00
2023-04-01T12:53:04.069Z,4.43
2023-04-01T12:55:39.752Z,3.83
2023-04-01T12:58:25.344Z,3.63
2023-04-01T13:01:15.331Z,4.03
2023-04-01T13:03:49.852Z,4.35
2023-04-01T13:06:25.630Z,2.45
2023-04-01T13:08:55.794Z,4.57
2023-04-01T13:11:26.877Z,6.10
2023-04-01T13:14:11.891Z,5.50
2023-04-01T13:16:47.652Z,6.97
2023-04-01T13:19:18.413Z,3.65
2023-04-01T13:21:51.530Z,7.35
2023-04-01T13:24:27.608Z,5.60
2023-04-01T13:26:59.818Z,3.63
2023-04-01T13:29:31.713Z,4.60
2023-04-01T13:32:07.226Z,4.75
2023-04-01T13:34:41.060Z,4.50
2023-04-01T13:37:14.794Z,8.97
2023-04-01T13:39:46.934Z,11.85
2023-04-01T13:42:17.068Z,7.53
2023-04-01T13:44:46.460Z,5.68
2023-04-01T13:47:41.544Z,5.60
2023-04-01T13:50:25.066Z,4.60
2023-04-01T13:53:06.859Z,4.95
2023-04-01T13:55:40.826Z,4.32
2023-04-01T13:58:25.628Z,6.90
2023-04-01T14:00:57.495Z,14.30
2023-04-01T14:03:43.747Z,6.70
2023-04-01T14:06:15.177Z,4.72
2023-04-01T14:08:52.581Z,4.32
2023-04-01T14:11:26.010Z,3.25
2023-04-01T14:13:57.822Z,3.15
2023-04-01T14:16:35.414Z,4.67
2023-04-01T14:19:13.215Z,2.30
2023-04-01T14:21:43.882Z,3.42
2023-04-01T14:24:19.901Z,3.28
2023-04-01T14:26:57.938Z,4.28
2023-04-01T14:29:29.577Z,2.80
2023-04-01T14:32:02.382Z,2.53
2023-04-01T14:34:36.513Z,2.95
2023-04-01T14:37:13.974Z,1.60
2023-04-01T14:40:14.187Z,3.60
2023-04-01T14:42:50.328Z,2.23
2023-04-01T14:45:24.552Z,3.50
2023-04-01T14:47:52.993Z,2.20
2023-04-01T14:50:22.615Z,2.75
2023-04-01T14:52:53.865Z,2.60
2023-04-01T14:55:33.249Z,4.43
2023-04-01T14:58:09.353Z,2.28
2023-04-01T15:00:51.638Z,1.83
2023-04-01T15:03:21.879Z,2.67
2023-04-01T15:05:52.116Z,3.60
2023-04-01T15:08:33.889Z,5.60
2023-04-01T15:11:16.977Z,2.67
2023-04-01T15:13:52.478Z,3.75
2023-04-01T15:16:22.182Z,4.78
2023-04-01T15:18:54.670Z,3.75
2023-04-01T15:21:33.653Z,2.33
2023-04-01T15:24:05.165Z,10.43
2023-04-01T15:26:43.674Z,4.20
2023-04-01T15:29:25.557Z,4.45
2023-04-01T15:31:59.112Z,5.20
2023-04-01T15:34:29.550Z,7.23
2023-04-01T15:37:02.200Z,6.40
2023-04-01T15:39:37.774Z,5.43
2023-04-01T15:42:12.916Z,7.35
2023-04-01T15:44:48.256Z,10.25
2023-04-01T15:47:31.304Z,9.23
2023-04-01T15:50:01.178Z,10.95
2023-04-01T15:52:38.466Z,9.90
2023-04-01T15:55:15.514Z,11.73
2023-04-01T15:57:49.437Z,11.45
2023-04-01T16:00:24.894Z,16.83
2023-04-01T16:02:54.283Z,18.33
2023-04-01T16:05:27.026Z,14.60
2023-04-01T16:08:03.140Z,13.20
2023-04-01T16:10:37.925Z,18.27
2023-04-01T16:13:14.412Z,16.20
2023-04-01T16:15:45.864Z,20.40
2023-04-01T16:18:19.830Z,23.65
2023-04-01T16:20:51.880Z,23.63
2023-04-01T16:23:23.524Z,23.38
2023-04-01T16:25:52.951Z,19.23
2023-04-01T16:28:22.492Z,21.77
2023-04-01T16:30:52.109Z,14.30
2023-04-01T16:33:23.849Z,17.73
2023-04-01T16:35:57.049Z,11.90
2023-04-01T16:38:27.875Z,19.83
2023-04-01T16:41:02.495Z,16.33
2023-04-01T16:43:31.762Z,14.52
2023-04-01T16:46:16.177Z,15.30
2023-04-01T16:48:55.906Z,16.80
2023-04-01T16:51:23.690Z,15.97
2023-04-01T16:54:01.689Z,14.93
2023-04-01T16:56:33.957Z,14.32
2023-04-01T16:59:03.611Z,12.88
2023-04-01T17:01:37.641Z,13.27
2023-04-01T17:04:08.975Z,15.30
2023-04-01T17:06:41.746Z,14.95
2023-04-01T17:09:29.938Z,15.68
2023-04-01T17:12:04.212Z,23.52
2023-04-01T17:14:32.930Z,23.55
2023-04-01T17:17:17.680Z,34.00
2023-04-01T17:19:50.244Z,31.85
2023-04-01T17:22:25.372Z,29.00
2023-04-01T17:24:56.365Z,25.17
2023-04-01T17:27:32.797Z,25.58
2023-04-01T17:30:14.073Z,24.73
2023-04-01T17:32:48.535Z,22.15
2023-04-01T17:35:17.850Z,26.42
2023-04-01T17:37:51.092Z,30.77
2023-04-01T17:40:27.252Z,30.17
2023-04-01T17:43:00.030Z,32.97
2023-04-01T17:45:31.666Z,34.58
2023-04-01T17:48:06.235Z,36.13
2023-04-01T17:50:44.769Z,36.63
2023-04-01T17:53:29.800Z,21.40
2023-04-01T17:56:02.243Z,16.07
2023-04-01T17:58:34.595Z,19.02
2023-04-01T18:01:15.493Z,19.17
2023-04-01T18:03:54.296Z,20.33
2023-04-01T18:06:22.582Z,17.10
2023-04-01T18:08:58.069Z,14.53
2023-04-01T18:11:34.337Z,18.80
2023-04-01T18:14:34.913Z,20.30
2023-04-01T18:17:13.213Z,20.25
2023-04-01T18:19:43.937Z,22.23
2023-04-01T18:22:18.162Z,21.43
2023-04-01T18:24:46.927Z,23.38
2023-04-01T18:27:17.012Z,18.95
2023-04-01T18:29:48.274Z,27.20
2023-04-01T18:32:21.077Z,27.23
2023-04-01T18:34:54.437Z,25.17
2023-04-01T18:37:25.304Z,28.17
2023-04-01T18:39:53.767Z,30.45
2023-04-01T18:42:29.502Z,32.50
2023-04-01T18:44:58.721Z,36.05
2023-04-01T18:47:31.363Z,40.80
2023-04-01T18:50:02.698Z,42.30
2023-04-01T18:52:34.587Z,46.40
2023-04-01T18:55:23.916Z,49.00
2023-04-01T18:57:51.868Z,46.70
2023-04-01T19:00:23.258Z,30.83
2023-04-01T19:02:56.842Z,26.73
2023-04-01T19:05:27.754Z,27.20
2023-04-01T19:07:55.104Z,32.83
2023-04-01T19:10:30.153Z,28.30
2023-04-01T19:13:04.689Z,31.67
2023-04-01T19:15:35.162Z,28.58
2023-04-01T19:18:17.498Z,26.95
2023-04-01T19:20:48.968Z,25.42
2023-04-01T19:23:34.196Z,25.00
2023-04-01T19:26:01.883Z,22.87
2023-04-01T19:28:37.494Z,19.75
2023-04-01T19:31:09.407Z,20.00
2023-04-01T19:33:42.661Z,22.15
2023-04-01T19:36:14.859Z,21.13
2023-04-01T19:38:44.241Z,20.17
2023-04-01T19:41:21.339Z,23.38
2023-04-01T19:43:53.220Z,20.17
2023-04-01T19:46:26.261Z,24.60
2023-04-01T19:49:01.066Z,29.88
2023-04-01T19:51:32.902Z,30.87
2023-04-01T19:54:02.670Z,27.75
2023-04-01T19:56:35.506Z,20.27
2023-04-01T19:59:07.507Z,19.42
2023-04-01T20:01:44.841Z,24.25
2023-04-01T20:04:16.094Z,20.87
2023-04-01T20:06:48.939Z,17.60
2023-04-01T20:09:27.847Z,26.02
2023-04-01T20:12:00.040Z,24.27
2023-04-01T20:14:31.187Z,29.35
2023-04-01T20:17:08.820Z,30.63
2023-04-01T20:19:38.215Z,33.58
2023-04-01T20:22:11.500Z,29.23
2023-04-01T20:24:42.344Z,34.85
2023-04-01T20:27:11.086Z,23.15
2023-04-01T20:29:41.404Z,21.40
2023-04-01T20:32:15.432Z,18.38
2023-04-01T20:34:59.495Z,16.00
2023-04-01T20:37:36.952Z,15.95
2023-04-01T20:40:15.710Z,15.68
2023-04-01T20:42:50.540Z,13.73
2023-04-01T20:45:22.955Z,17.70
2023-04-01T20:47:58.944Z,14.10
2023-04-01T20:50:29.223Z,12.95
2023-04-01T20:53:02.647Z,12.02
2023-04-01T20:55:39.214Z,9.70
2023-04-01T20:58:09.785Z,13.80
2023-04-01T21:00:41.468Z,13.43
2023-04-01T21:03:24.236Z,10.10
2023-04-01T21:06:00.837Z,8.32
2023-04-01T21:08:36.635Z,9.73
2023-04-01T21:11:09.266Z,7.70
2023-04-01T21:13:41.080Z,8.45
2023-04-01T21:16:26.175Z,10.27
2023-04-01T21:18:59.902Z,9.63
2023-04-01T21:21:37.692Z,10.03
2023-04-01T21:24:28.748Z,9.40
2023-04-01T21:27:01.861Z,7.60
2023-04-01T21:29:34.600Z,7.25
2023-04-01T21:32:16.147Z,7.10
2023-04-01T21:34:45.078Z,6.90
2023-04-01T21:37:21.392Z,7.40
2023-04-01T21:39:57.729Z,10.50
2023-04-01T21:42:30.191Z,8.73
2023-04-01T21:45:08.122Z,7.88
2023-04-01T21:47:53.627Z,8.67
2023-04-01T21:50:31.981Z,12.57
2023-04-01T21:53:12.379Z,6.13
2023-04-01T21:56:03.467Z,7.22
2023-04-01T21:58:48.852Z,6.80
2023-04-01T22:01:23.237Z,6.47
2023-04-01T22:04:05.433Z,5.90
2023-04-01T22:06:33.819Z,6.15
2023-04-01T22:09:08.346Z,6.50
2023-04-01T22:11:46.041Z,7.60
2023-04-01T22:14:18.830Z,5.23
2023-04-01T22:16:49.448Z,5.47
2023-04-01T22:19:21.148Z,7.65
2023-04-01T22:21:53.385Z,6.60
2023-04-01T22:24:25.530Z,7.88
2023-04-01T22:26:58.744Z,5.50
2023-04-01T22:29:28.345Z,5.95
2023-04-01T22:31:58.685Z,5.68
2023-04-01T22:34:28.824Z,4.57
2023-04-01T22:36:59.233Z,4.78
2023-04-01T22:39:33.938Z,5.10
2023-04-01T22:42:11.755Z,6.65
2023-04-01T22:44:46.696Z,7.30
2023-04-01T22:47:21.404Z,7.38
2023-04-01T22:49:51.021Z,9.20
2023-04-01T22:52:21.482Z,4.53
2023-04-01T22:54:50.728Z,3.17
2023-04-01T22:57:37.458Z,4.90
2023-04-01T23:00:10.953Z,4.25
2023-04-01T23:02:39.815Z,6.35
2023-04-01T23:05:09.986Z,6.40
2023-04-01T23:07:47.979Z,6.15
2023-04-01T23:10:18.831Z,5.78
2023-04-01T23:12:48.073Z,6.72
2023-04-01T23:15:16.155Z,5.57
2023-04-01T23:18:04.081Z,6.73
2023-04-01T23:20:41.072Z,5.65
2023-04-01T23:23:16.126Z,5.10
2023-04-01T23:25:47.594Z,5.65
2023-04-01T23:28:26.741Z,7.20
2023-04-01T23:30:53.836Z,6.77
2023-04-01T23:33:25.140Z,7.45
2023-04-01T23:35:53.117Z,7.05
2023-04-01T23:38:20.511Z,7.60
2023-04-01T23:40:48.854Z,5.75
2023-04-01T23:43:20.717Z,8.07
2023-04-01T23:45:49.361Z,8.27
2023-04-01T23:48:17.151Z,8.80
2023-04-01T23:50:45.000Z,7.15
2023-04-01T23:53:15.754Z,8.30
2023-04-01T23:55:43.181Z,7.37
2023-04-01T23:58:16.461Z,11.38
